sensor_id;sensor_type;location;lat;lon;timestamp;pressure;altitude;pressure_sealevel;temperature;humidity
51986;BME280;38002;53.296;6.600;2024-01-30T00:01:41;102842.81;;;4.80;100.00
51986;BME280;38002;53.296;6.600;2024-01-30T00:06:43;102829.56;;;4.76;100.00
51986;BME280;38002;53.296;6.600;2024-01-30T00:11:43;102833.28;;;4.73;100.00
51986;BME280;38002;53.296;6.600;2024-01-30T00:16:44;102832.25;;;4.76;100.00
51986;BME280;38002;53.296;6.600;2024-01-30T00:21:45;102810.06;;;4.71;100.00
51986;BME280;38002;53.296;6.600;2024-01-30T00:26:46;102807.84;;;4.62;100.00
51986;BME280;38002;53.296;6.600;2024-01-30T00:31:46;102815.75;;;4.65;100.00
51986;BME280;38002;53.296;6.600;2024-01-30T00:36:47;102806.00;;;4.62;100.00
51986;BME280;38002;53.296;6.600;2024-01-30T00:41:48;102829.25;;;4.65;100.00
51986;BME280;38002;53.296;6.600;2024-01-30T00:46:48;102809.00;;;4.56;100.00
51986;BME280;38002;53.296;6.600;2024-01-30T00:51:48;102785.28;;;4.45;100.00
51986;BME280;38002;53.296;6.600;2024-01-30T00:56:49;102783.41;;;4.47;100.00
51986;BME280;38002;53.296;6.600;2024-01-30T01:01:50;102778.31;;;4.41;100.00
51986;BME280;38002;53.296;6.600;2024-01-30T01:06:53;102775.53;;;4.43;100.00
51986;BME280;38002;53.296;6.600;2024-01-30T01:11:54;102776.66;;;4.39;100.00
51986;BME280;38002;53.296;6.600;2024-01-30T01:16:54;102780.00;;;4.44;100.00
51986;BME280;38002;53.296;6.600;2024-01-30T01:21:55;102790.38;;;4.51;100.00
51986;BME280;38002;53.296;6.600;2024-01-30T01:26:56;102764.94;;;4.40;100.00
51986;BME280;38002;53.296;6.600;2024-01-30T01:31:58;102771.16;;;4.40;100.00
51986;BME280;38002;53.296;6.600;2024-01-30T01:36:58;102798.13;;;4.57;100.00
51986;BME280;38002;53.296;6.600;2024-01-30T01:41:59;102785.53;;;4.58;100.00
51986;BME280;38002;53.296;6.600;2024-01-30T01:46:59;102769.94;;;4.47;100.00
51986;BME280;38002;53.296;6.600;2024-01-30T01:52:00;102770.88;;;4.46;100.00
51986;BME280;38002;53.296;6.600;2024-01-30T01:57:01;102776.91;;;4.51;100.00
51986;BME280;38002;53.296;6.600;2024-01-30T02:02:02;102768.19;;;4.46;100.00
51986;BME280;38002;53.296;6.600;2024-01-30T02:07:03;102776.75;;;4.54;100.00
51986;BME280;38002;53.296;6.600;2024-01-30T02:12:04;102761.84;;;4.47;100.00
51986;BME280;38002;53.296;6.600;2024-01-30T02:17:04;102756.53;;;4.46;100.00
51986;BME280;38002;53.296;6.600;2024-01-30T02:22:11;102743.78;;;4.49;100.00
51986;BME280;38002;53.296;6.600;2024-01-30T02:27:11;102734.91;;;4.47;100.00
51986;BME280;38002;53.296;6.600;2024-01-30T02:32:12;102720.63;;;4.45;100.00
51986;BME280;38002;53.296;6.600;2024-01-30T02:37:16;102710.91;;;4.43;100.00
51986;BME280;38002;53.296;6.600;2024-01-30T02:42:17;102717.47;;;4.37;100.00
51986;BME280;38002;53.296;6.600;2024-01-30T02:47:17;102720.97;;;4.39;100.00
51986;BME280;38002;53.296;6.600;2024-01-30T02:52:17;102724.44;;;4.41;100.00
51986;BME280;38002;53.296;6.600;2024-01-30T02:57:26;102707.41;;;4.41;100.00
51986;BME280;38002;53.296;6.600;2024-01-30T03:02:27;102706.16;;;4.48;100.00
51986;BME280;38002;53.296;6.600;2024-01-30T03:07:27;102714.09;;;4.51;100.00
51986;BME280;38002;53.296;6.600;2024-01-30T03:12:36;102717.25;;;4.59;100.00
51986;BME280;38002;53.296;6.600;2024-01-30T03:17:37;102711.78;;;4.61;100.00
51986;BME280;38002;53.296;6.600;2024-01-30T03:28:45;102682.56;;;4.53;100.00
51986;BME280;38002;53.296;6.600;2024-01-30T03:33:47;102670.91;;;4.52;100.00
51986;BME280;38002;53.296;6.600;2024-01-30T03:38:52;102692.47;;;4.70;100.00
51986;BME280;38002;53.296;6.600;2024-01-30T03:43:53;102670.03;;;4.69;100.00
51986;BME280;38002;53.296;6.600;2024-01-30T03:48:54;102684.03;;;4.76;100.00
51986;BME280;38002;53.296;6.600;2024-01-30T03:53:54;102643.97;;;4.70;100.00
51986;BME280;38002;53.296;6.600;2024-01-30T03:58:55;102655.09;;;4.79;100.00
51986;BME280;38002;53.296;6.600;2024-01-30T04:03:55;102606.69;;;4.78;100.00
51986;BME280;38002;53.296;6.600;2024-01-30T04:08:56;102598.44;;;4.81;100.00
51986;BME280;38002;53.296;6.600;2024-01-30T04:13:59;102656.94;;;4.96;100.00
51986;BME280;38002;53.296;6.600;2024-01-30T04:19:00;102655.06;;;4.96;100.00
51986;BME280;38002;53.296;6.600;2024-01-30T04:24:00;102646.03;;;4.97;100.00
51986;BME280;38002;53.296;6.600;2024-01-30T04:29:01;102612.13;;;4.93;100.00
51986;BME280;38002;53.296;6.600;2024-01-30T04:34:01;102636.53;;;5.08;100.00
51986;BME280;38002;53.296;6.600;2024-01-30T04:39:02;102636.09;;;5.15;100.00
51986;BME280;38002;53.296;6.600;2024-01-30T04:44:04;102644.81;;;5.20;100.00
51986;BME280;38002;53.296;6.600;2024-01-30T04:49:04;102619.41;;;5.24;100.00
51986;BME280;38002;53.296;6.600;2024-01-30T04:54:05;102633.63;;;5.43;100.00
51986;BME280;38002;53.296;6.600;2024-01-30T04:59:06;102610.03;;;5.47;100.00
51986;BME280;38002;53.296;6.600;2024-01-30T05:04:09;102604.97;;;5.57;100.00
51986;BME280;38002;53.296;6.600;2024-01-30T05:09:12;102603.56;;;5.65;100.00
51986;BME280;38002;53.296;6.600;2024-01-30T05:14:12;102594.06;;;5.74;100.00
51986;BME280;38002;53.296;6.600;2024-01-30T05:19:15;102592.88;;;5.79;100.00
51986;BME280;38002;53.296;6.600;2024-01-30T05:24:16;102583.50;;;5.86;100.00
51986;BME280;38002;53.296;6.600;2024-01-30T05:29:16;102576.09;;;5.90;100.00
51986;BME280;38002;53.296;6.600;2024-01-30T05:34:17;102561.72;;;5.89;100.00
51986;BME280;38002;53.296;6.600;2024-01-30T05:39:17;102588.50;;;6.08;100.00
51986;BME280;38002;53.296;6.600;2024-01-30T05:44:18;102571.44;;;6.08;100.00
51986;BME280;38002;53.296;6.600;2024-01-30T05:49:19;102536.88;;;6.13;100.00
51986;BME280;38002;53.296;6.600;2024-01-30T05:54:19;102585.09;;;6.34;100.00
51986;BME280;38002;53.296;6.600;2024-01-30T05:59:20;102604.44;;;6.43;100.00
51986;BME280;38002;53.296;6.600;2024-01-30T06:04:20;102596.63;;;6.52;100.00
51986;BME280;38002;53.296;6.600;2024-01-30T06:09:21;102601.47;;;6.61;100.00
51986;BME280;38002;53.296;6.600;2024-01-30T06:14:21;102590.38;;;6.66;100.00
51986;BME280;38002;53.296;6.600;2024-01-30T06:19:22;102588.94;;;6.74;100.00
51986;BME280;38002;53.296;6.600;2024-01-30T06:24:22;102576.78;;;6.81;100.00
51986;BME280;38002;53.296;6.600;2024-01-30T06:29:23;102580.53;;;6.93;100.00
51986;BME280;38002;53.296;6.600;2024-01-30T06:34:27;102569.31;;;6.99;100.00
51986;BME280;38002;53.296;6.600;2024-01-30T06:39:28;102559.28;;;7.01;100.00
51986;BME280;38002;53.296;6.600;2024-01-30T06:44:29;102548.84;;;7.09;100.00
51986;BME280;38002;53.296;6.600;2024-01-30T06:49:29;102556.88;;;7.11;100.00
51986;BME280;38002;53.296;6.600;2024-01-30T06:54:30;102572.03;;;7.13;100.00
51986;BME280;38002;53.296;6.600;2024-01-30T06:59:33;102578.38;;;7.26;100.00
51986;BME280;38002;53.296;6.600;2024-01-30T07:04:35;102559.66;;;7.23;100.00
51986;BME280;38002;53.296;6.600;2024-01-30T07:09:37;102548.06;;;7.21;100.00
51986;BME280;38002;53.296;6.600;2024-01-30T07:14:38;102556.84;;;7.25;100.00
51986;BME280;38002;53.296;6.600;2024-01-30T07:19:38;102550.06;;;7.32;100.00
51986;BME280;38002;53.296;6.600;2024-01-30T07:24:42;102548.34;;;7.31;100.00
51986;BME280;38002;53.296;6.600;2024-01-30T07:29:45;102557.03;;;7.36;100.00
51986;BME280;38002;53.296;6.600;2024-01-30T07:34:45;102566.00;;;7.37;100.00
51986;BME280;38002;53.296;6.600;2024-01-30T07:39:47;102548.41;;;7.29;100.00
51986;BME280;38002;53.296;6.600;2024-01-30T07:44:47;102574.59;;;7.43;100.00
51986;BME280;38002;53.296;6.600;2024-01-30T07:49:48;102573.91;;;7.40;100.00
51986;BME280;38002;53.296;6.600;2024-01-30T07:54:49;102571.69;;;7.46;100.00
51986;BME280;38002;53.296;6.600;2024-01-30T07:59:49;102570.84;;;7.46;100.00
51986;BME280;38002;53.296;6.600;2024-01-30T08:04:50;102573.59;;;7.58;100.00
51986;BME280;38002;53.296;6.600;2024-01-30T08:09:50;102582.09;;;7.66;100.00
51986;BME280;38002;53.296;6.600;2024-01-30T08:14:53;102583.53;;;7.72;100.00
51986;BME280;38002;53.296;6.600;2024-01-30T08:19:54;102590.25;;;7.79;100.00
51986;BME280;38002;53.296;6.600;2024-01-30T08:24:54;102576.72;;;7.79;100.00
51986;BME280;38002;53.296;6.600;2024-01-30T08:29:55;102579.13;;;7.84;100.00
51986;BME280;38002;53.296;6.600;2024-01-30T08:34:55;102606.66;;;7.90;100.00
51986;BME280;38002;53.296;6.600;2024-01-30T08:39:56;102593.63;;;7.83;100.00
51986;BME280;38002;53.296;6.600;2024-01-30T08:44:58;102598.66;;;7.89;100.00
51986;BME280;38002;53.296;6.600;2024-01-30T08:49:59;102599.00;;;7.97;100.00
51986;BME280;38002;53.296;6.600;2024-01-30T08:55:00;102586.88;;;8.02;100.00
51986;BME280;38002;53.296;6.600;2024-01-30T09:00:01;102588.28;;;8.08;100.00
51986;BME280;38002;53.296;6.600;2024-01-30T09:05:04;102601.22;;;8.17;100.00
51986;BME280;38002;53.296;6.600;2024-01-30T09:10:05;102597.03;;;8.26;100.00
51986;BME280;38002;53.296;6.600;2024-01-30T09:15:06;102621.59;;;8.37;100.00
51986;BME280;38002;53.296;6.600;2024-01-30T09:20:07;102609.19;;;8.33;100.00
51986;BME280;38002;53.296;6.600;2024-01-30T09:25:12;102606.31;;;8.36;100.00
51986;BME280;38002;53.296;6.600;2024-01-30T09:30:15;102596.34;;;8.36;100.00
51986;BME280;38002;53.296;6.600;2024-01-30T09:35:21;102613.38;;;8.51;100.00
51986;BME280;38002;53.296;6.600;2024-01-30T09:40:22;102607.53;;;8.70;100.00
51986;BME280;38002;53.296;6.600;2024-01-30T09:45:26;102618.41;;;8.82;100.00
51986;BME280;38002;53.296;6.600;2024-01-30T09:50:27;102618.63;;;8.92;100.00
51986;BME280;38002;53.296;6.600;2024-01-30T09:55:27;102611.66;;;9.00;100.00
51986;BME280;38002;53.296;6.600;2024-01-30T10:00:31;102616.66;;;9.06;100.00
51986;BME280;38002;53.296;6.600;2024-01-30T10:05:35;102591.25;;;9.07;100.00
51986;BME280;38002;53.296;6.600;2024-01-30T10:10:39;102608.94;;;9.26;100.00
51986;BME280;38002;53.296;6.600;2024-01-30T10:15:40;102602.19;;;9.31;100.00
51986;BME280;38002;53.296;6.600;2024-01-30T10:20:45;102612.25;;;9.42;100.00
51986;BME280;38002;53.296;6.600;2024-01-30T10:25:47;102589.66;;;9.41;100.00
51986;BME280;38002;53.296;6.600;2024-01-30T10:30:56;102617.00;;;9.64;100.00
51986;BME280;38002;53.296;6.600;2024-01-30T10:36:03;102607.88;;;9.65;100.00
51986;BME280;38002;53.296;6.600;2024-01-30T10:41:05;102619.13;;;9.71;100.00
51986;BME280;38002;53.296;6.600;2024-01-30T10:46:18;102607.28;;;9.72;100.00
51986;BME280;38002;53.296;6.600;2024-01-30T10:51:20;102603.06;;;9.68;100.00
51986;BME280;38002;53.296;6.600;2024-01-30T10:56:25;102605.53;;;9.71;100.00
51986;BME280;38002;53.296;6.600;2024-01-30T11:01:33;102615.19;;;9.75;100.00
51986;BME280;38002;53.296;6.600;2024-01-30T11:07:01;102622.81;;;9.83;100.00
51986;BME280;38002;53.296;6.600;2024-01-30T11:12:39;102605.41;;;9.85;100.00
51986;BME280;38002;53.296;6.600;2024-01-30T11:17:51;102590.00;;;9.73;100.00
51986;BME280;38002;53.296;6.600;2024-01-30T11:22:54;102606.59;;;9.81;100.00
51986;BME280;38002;53.296;6.600;2024-01-30T11:27:56;102601.81;;;9.85;100.00
51986;BME280;38002;53.296;6.600;2024-01-30T11:38:01;102619.75;;;9.87;100.00
51986;BME280;38002;53.296;6.600;2024-01-30T11:43:04;102604.56;;;9.72;100.00
51986;BME280;38002;53.296;6.600;2024-01-30T11:48:05;102624.13;;;9.77;100.00
51986;BME280;38002;53.296;6.600;2024-01-30T11:53:07;102619.38;;;9.68;100.00
51986;BME280;38002;53.296;6.600;2024-01-30T11:58:08;102613.41;;;9.63;100.00
51986;BME280;38002;53.296;6.600;2024-01-30T12:03:11;102623.28;;;9.64;100.00
51986;BME280;38002;53.296;6.600;2024-01-30T12:08:16;102632.31;;;9.65;100.00
51986;BME280;38002;53.296;6.600;2024-01-30T12:13:17;102619.00;;;9.49;100.00
51986;BME280;38002;53.296;6.600;2024-01-30T12:18:21;102611.06;;;9.46;100.00
51986;BME280;38002;53.296;6.600;2024-01-30T12:23:28;102633.31;;;9.51;100.00
51986;BME280;38002;53.296;6.600;2024-01-30T12:28:33;102615.75;;;9.44;100.00
51986;BME280;38002;53.296;6.600;2024-01-30T12:33:53;102648.09;;;9.47;100.00
51986;BME280;38002;53.296;6.600;2024-01-30T12:38:56;102615.63;;;9.33;100.00
51986;BME280;38002;53.296;6.600;2024-01-30T12:44:09;102644.84;;;9.42;100.00
51986;BME280;38002;53.296;6.600;2024-01-30T12:49:11;102628.88;;;9.37;100.00
51986;BME280;38002;53.296;6.600;2024-01-30T12:54:16;102611.19;;;9.19;100.00
51986;BME280;38002;53.296;6.600;2024-01-30T12:59:18;102614.13;;;9.29;100.00
51986;BME280;38002;53.296;6.600;2024-01-30T13:04:19;102603.06;;;9.32;100.00
51986;BME280;38002;53.296;6.600;2024-01-30T13:09:21;102600.34;;;9.32;100.00
51986;BME280;38002;53.296;6.600;2024-01-30T13:14:21;102607.38;;;9.47;99.88
51986;BME280;38002;53.296;6.600;2024-01-30T13:19:25;102599.47;;;9.44;100.00
51986;BME280;38002;53.296;6.600;2024-01-30T13:24:26;102611.16;;;9.57;100.00
51986;BME280;38002;53.296;6.600;2024-01-30T13:29:29;102599.22;;;9.47;100.00
51986;BME280;38002;53.296;6.600;2024-01-30T13:34:30;102597.19;;;9.38;100.00
51986;BME280;38002;53.296;6.600;2024-01-30T13:39:31;102615.53;;;9.34;100.00
51986;BME280;38002;53.296;6.600;2024-01-30T13:44:31;102593.22;;;9.18;100.00
51986;BME280;38002;53.296;6.600;2024-01-30T13:49:35;102612.72;;;9.10;100.00
51986;BME280;38002;53.296;6.600;2024-01-30T13:54:36;102612.09;;;9.07;100.00
51986;BME280;38002;53.296;6.600;2024-01-30T13:59:39;102591.03;;;8.98;100.00
51986;BME280;38002;53.296;6.600;2024-01-30T14:04:43;102608.00;;;9.01;100.00
51986;BME280;38002;53.296;6.600;2024-01-30T14:09:44;102608.84;;;9.02;100.00
51986;BME280;38002;53.296;6.600;2024-01-30T14:14:45;102590.84;;;8.88;100.00
51986;BME280;38002;53.296;6.600;2024-01-30T14:19:45;102600.19;;;8.84;100.00
51986;BME280;38002;53.296;6.600;2024-01-30T14:24:52;102614.81;;;8.82;100.00
51986;BME280;38002;53.296;6.600;2024-01-30T14:29:53;102628.81;;;8.88;100.00
51986;BME280;38002;53.296;6.600;2024-01-30T14:34:53;102633.16;;;8.78;100.00
51986;BME280;38002;53.296;6.600;2024-01-30T14:39:54;102635.31;;;8.73;100.00
51986;BME280;38002;53.296;6.600;2024-01-30T14:45:01;102659.16;;;8.68;100.00
51986;BME280;38002;53.296;6.600;2024-01-30T14:50:02;102660.66;;;8.59;100.00
51986;BME280;38002;53.296;6.600;2024-01-30T14:55:03;102648.72;;;8.49;100.00
51986;BME280;38002;53.296;6.600;2024-01-30T15:00:05;102641.16;;;8.28;100.00
51986;BME280;38002;53.296;6.600;2024-01-30T15:05:06;102652.97;;;8.27;100.00
51986;BME280;38002;53.296;6.600;2024-01-30T15:10:08;102659.88;;;8.18;100.00
51986;BME280;38002;53.296;6.600;2024-01-30T15:15:09;102658.66;;;8.09;100.00
51986;BME280;38002;53.296;6.600;2024-01-30T15:20:13;102647.91;;;8.08;100.00
51986;BME280;38002;53.296;6.600;2024-01-30T15:25:14;102663.09;;;8.10;100.00
51986;BME280;38002;53.296;6.600;2024-01-30T15:30:14;102668.69;;;8.07;100.00
51986;BME280;38002;53.296;6.600;2024-01-30T15:35:15;102678.66;;;8.07;100.00
51986;BME280;38002;53.296;6.600;2024-01-30T15:40:16;102696.66;;;8.08;100.00
51986;BME280;38002;53.296;6.600;2024-01-30T15:45:17;102683.63;;;8.00;100.00
51986;BME280;38002;53.296;6.600;2024-01-30T15:50:20;102701.34;;;8.06;100.00
51986;BME280;38002;53.296;6.600;2024-01-30T15:55:39;102689.66;;;7.91;100.00
51986;BME280;38002;53.296;6.600;2024-01-30T16:00:40;102705.03;;;7.91;100.00
51986;BME280;38002;53.296;6.600;2024-01-30T16:05:41;102720.41;;;7.90;100.00
51986;BME280;38002;53.296;6.600;2024-01-30T16:10:43;102705.53;;;7.83;100.00
51986;BME280;38002;53.296;6.600;2024-01-30T16:15:43;102748.94;;;7.96;100.00
51986;BME280;38002;53.296;6.600;2024-01-30T16:20:44;102735.03;;;7.88;100.00
51986;BME280;38002;53.296;6.600;2024-01-30T16:25:59;102737.38;;;7.80;100.00
51986;BME280;38002;53.296;6.600;2024-01-30T16:31:00;102762.41;;;7.83;100.00
51986;BME280;38002;53.296;6.600;2024-01-30T16:36:02;102757.78;;;7.71;100.00
51986;BME280;38002;53.296;6.600;2024-01-30T16:54:00;102777.19;;;7.49;100.00
51986;BME280;38002;53.296;6.600;2024-01-30T16:59:07;102786.19;;;7.50;100.00
51986;BME280;38002;53.296;6.600;2024-01-30T17:04:18;102802.44;;;7.50;100.00
51986;BME280;38002;53.296;6.600;2024-01-30T17:09:44;102831.72;;;7.57;100.00
51986;BME280;38002;53.296;6.600;2024-01-30T17:14:48;102818.38;;;7.40;100.00
51986;BME280;38002;53.296;6.600;2024-01-30T17:19:52;102842.25;;;7.48;100.00
51986;BME280;38002;53.296;6.600;2024-01-30T17:31:53;102852.47;;;7.28;100.00
51986;BME280;38002;53.296;6.600;2024-01-30T17:37:06;102861.91;;;7.21;100.00
51986;BME280;38002;53.296;6.600;2024-01-30T17:42:11;102868.56;;;7.16;100.00
51986;BME280;38002;53.296;6.600;2024-01-30T17:47:15;102896.38;;;7.18;100.00
51986;BME280;38002;53.296;6.600;2024-01-30T17:52:57;102917.94;;;7.19;100.00
51986;BME280;38002;53.296;6.600;2024-01-30T18:10:49;102926.00;;;6.90;100.00
51986;BME280;38002;53.296;6.600;2024-01-30T18:17:03;102964.03;;;7.02;100.00
51986;BME280;38002;53.296;6.600;2024-01-30T18:23:15;102979.59;;;6.99;100.00
51986;BME280;38002;53.296;6.600;2024-01-30T18:28:19;102981.75;;;6.92;100.00
51986;BME280;38002;53.296;6.600;2024-01-30T18:33:39;103012.19;;;6.96;100.00
51986;BME280;38002;53.296;6.600;2024-01-30T18:38:43;102989.75;;;6.78;100.00
51986;BME280;38002;53.296;6.600;2024-01-30T18:43:51;102988.97;;;6.76;100.00
51986;BME280;38002;53.296;6.600;2024-01-30T18:48:55;103024.31;;;6.89;100.00
51986;BME280;38002;53.296;6.600;2024-01-30T18:53:58;103017.03;;;6.73;100.00
51986;BME280;38002;53.296;6.600;2024-01-30T18:58:59;103041.13;;;6.78;100.00
51986;BME280;38002;53.296;6.600;2024-01-30T19:04:00;103037.81;;;6.73;100.00
51986;BME280;38002;53.296;6.600;2024-01-30T19:09:05;103037.44;;;6.63;100.00
51986;BME280;38002;53.296;6.600;2024-01-30T19:14:09;103065.19;;;6.67;100.00
51986;BME280;38002;53.296;6.600;2024-01-30T19:19:12;103073.03;;;6.71;100.00
51986;BME280;38002;53.296;6.600;2024-01-30T19:24:48;103066.63;;;6.57;100.00
51986;BME280;38002;53.296;6.600;2024-01-30T19:30:18;103091.75;;;6.59;100.00
51986;BME280;38002;53.296;6.600;2024-01-30T19:35:21;103088.72;;;6.48;100.00
51986;BME280;38002;53.296;6.600;2024-01-30T19:40:33;103106.06;;;6.44;100.00
51986;BME280;38002;53.296;6.600;2024-01-30T19:45:57;103121.41;;;6.43;100.00
51986;BME280;38002;53.296;6.600;2024-01-30T19:51:16;103122.50;;;6.39;100.00
51986;BME280;38002;53.296;6.600;2024-01-30T19:57:08;103158.94;;;6.49;100.00
51986;BME280;38002;53.296;6.600;2024-01-30T20:02:29;103155.59;;;6.44;100.00
51986;BME280;38002;53.296;6.600;2024-01-30T20:07:59;103159.88;;;6.31;100.00
51986;BME280;38002;53.296;6.600;2024-01-30T20:13:05;103169.00;;;6.28;100.00
51986;BME280;38002;53.296;6.600;2024-01-30T20:18:07;103193.75;;;6.38;100.00
51986;BME280;38002;53.296;6.600;2024-01-30T20:23:36;103211.69;;;6.39;100.00
51986;BME280;38002;53.296;6.600;2024-01-30T20:28:41;103217.41;;;6.33;100.00
51986;BME280;38002;53.296;6.600;2024-01-30T20:33:51;103214.47;;;6.20;100.00
51986;BME280;38002;53.296;6.600;2024-01-30T20:38:58;103229.94;;;6.17;100.00
51986;BME280;38002;53.296;6.600;2024-01-30T20:44:09;103227.38;;;6.14;100.00
51986;BME280;38002;53.296;6.600;2024-01-30T20:49:32;103244.78;;;6.08;100.00
51986;BME280;38002;53.296;6.600;2024-01-30T20:54:43;103267.66;;;6.18;100.00
51986;BME280;38002;53.296;6.600;2024-01-30T20:59:51;103282.13;;;6.17;100.00
51986;BME280;38002;53.296;6.600;2024-01-30T21:10:10;103258.78;;;5.98;100.00
51986;BME280;38002;53.296;6.600;2024-01-30T21:15:14;103268.94;;;5.92;100.00
51986;BME280;38002;53.296;6.600;2024-01-30T21:20:15;103262.13;;;5.84;100.00
51986;BME280;38002;53.296;6.600;2024-01-30T21:25:38;103280.44;;;5.77;100.00
51986;BME280;38002;53.296;6.600;2024-01-30T21:30:47;103292.34;;;5.73;100.00
51986;BME280;38002;53.296;6.600;2024-01-30T21:35:48;103298.88;;;5.68;100.00
51986;BME280;38002;53.296;6.600;2024-01-30T21:40:49;103295.44;;;5.64;100.00
51986;BME280;38002;53.296;6.600;2024-01-30T21:45:52;103299.31;;;5.59;100.00
51986;BME280;38002;53.296;6.600;2024-01-30T21:51:00;103314.63;;;5.58;100.00
51986;BME280;38002;53.296;6.600;2024-01-30T21:56:03;103326.50;;;5.54;100.00
51986;BME280;38002;53.296;6.600;2024-01-30T22:01:10;103340.81;;;5.56;100.00
51986;BME280;38002;53.296;6.600;2024-01-30T22:06:12;103351.66;;;5.55;100.00
51986;BME280;38002;53.296;6.600;2024-01-30T22:11:17;103339.81;;;5.38;100.00
51986;BME280;38002;53.296;6.600;2024-01-30T22:16:18;103344.31;;;5.38;100.00
51986;BME280;38002;53.296;6.600;2024-01-30T22:21:34;103365.31;;;5.52;100.00
51986;BME280;38002;53.296;6.600;2024-01-30T22:26:51;103346.28;;;5.34;100.00
51986;BME280;38002;53.296;6.600;2024-01-30T22:31:52;103349.88;;;5.35;100.00
51986;BME280;38002;53.296;6.600;2024-01-30T22:36:52;103358.16;;;5.30;100.00
51986;BME280;38002;53.296;6.600;2024-01-30T22:41:56;103361.78;;;5.29;100.00
51986;BME280;38002;53.296;6.600;2024-01-30T22:52:53;103365.97;;;5.36;100.00
51986;BME280;38002;53.296;6.600;2024-01-30T22:57:59;103380.19;;;5.40;100.00
51986;BME280;38002;53.296;6.600;2024-01-30T23:03:00;103370.81;;;5.28;100.00
51986;BME280;38002;53.296;6.600;2024-01-30T23:08:26;103380.03;;;5.23;100.00
51986;BME280;38002;53.296;6.600;2024-01-30T23:13:29;103382.75;;;5.23;100.00
51986;BME280;38002;53.296;6.600;2024-01-30T23:18:34;103394.41;;;5.23;100.00
51986;BME280;38002;53.296;6.600;2024-01-30T23:23:55;103398.00;;;5.24;100.00
51986;BME280;38002;53.296;6.600;2024-01-30T23:28:56;103413.19;;;5.26;100.00
51986;BME280;38002;53.296;6.600;2024-01-30T23:33:58;103413.25;;;5.25;100.00
51986;BME280;38002;53.296;6.600;2024-01-30T23:38:58;103424.78;;;5.28;100.00
51986;BME280;38002;53.296;6.600;2024-01-30T23:44:04;103416.72;;;5.27;100.00
